Flight Track Log - Related Links

Times and Time Zones

All times are in EDT time to prevent confusion due to time zone crossing. See the N124CM flight status page for this flight to view local times or setup timezone preferences in your user account.

Time Position Orientation Groundspeed Altitude Reporting Facility
EDT Latitude Longitude Course Direction KTS MPH feet Rate Location/Type
Wed 04:05:52 PM 32.8333 -96.8333 203° Southwest 143 165 1,600  Level Dallas / Fort Worth TRACON
Wed 04:06:58 PM 32.8000 -96.8500 203° Southwest 169 194 3,900 1,143 Climbing Dallas / Fort Worth TRACON
Wed 04:07:58 PM 32.7333 -96.8833 203° Southwest 210 242 4,000 50 Climbing Dallas / Fort Worth TRACON
Wed 04:08:58 PM 32.6833 -96.9000 196° South 206 237 4,000  Level Dallas / Fort Worth TRACON
Wed 04:10:04 PM 32.6500 -96.9667 239° Southwest 237 273 4,000  Level Dallas / Fort Worth TRACON
Wed 04:10:58 PM 32.6500 -97.0333 270° West 237 273 4,000  Level Dallas / Fort Worth TRACON
Wed 04:11:58 PM 32.6333 -97.1167 257° West 243 280 4,000 -48 Level Dallas / Fort Worth TRACON
Wed 04:13:04 PM 32.6333 -97.2000 270° West 258 297 3,900  Descending Dallas / Fort Worth TRACON
Wed 04:14:04 PM 32.6833 -97.2667 312° West 261 300 4,000 737 Climbing Dallas / Fort Worth TRACON
Wed 04:14:58 PM 32.7333 -97.3000 331° Northwest 212 244 5,300 1,053 Climbing Dallas / Fort Worth TRACON
Wed 04:15:58 PM 32.7833 -97.3667 312° West 255 293 6,000 550 Climbing Dallas / Fort Worth TRACON
Wed 04:16:58 PM 32.8228 -97.4208 311° West 263 303 6,400 1,100 Climbing Fort Worth Center
Wed 04:17:58 PM 32.8731 -97.4803 315° West 251 289 8,200 1,700 Climbing Fort Worth Center
Wed 04:18:58 PM 32.9147 -97.5322 277° West 261 300 9,800 950 Climbing Fort Worth Center
Wed 04:19:58 PM 32.9711 -97.5967 316° Northwest 248 285 10,100 300 Climbing Fort Worth Center
Wed 04:20:58 PM 33.0294 -97.6611 317° Northwest 267 307 10,400 950 Climbing Fort Worth Center
Wed 04:21:58 PM 33.0647 -97.7183 306° West 262 302 12,000 1,600 Climbing Fort Worth Center
Wed 04:22:58 PM 33.0917 -97.7978 292° West 237 273 13,600 1,650 Climbing Fort Worth Center
Wed 04:23:58 PM 33.1061 -97.8672 284° West 232 267 15,300 1,900 Climbing Fort Worth Center
Wed 04:24:58 PM 33.1328 -97.9419 293° West 232 267 17,400 1,750 Climbing Fort Worth Center
Wed 04:25:58 PM 33.1533 -98.0064 291° West 227 261 18,800 1,300 Climbing Fort Worth Center
Wed 04:26:58 PM 33.1803 -98.0861 292° West 233 268 20,000 1,050 Climbing Fort Worth Center
Wed 04:27:58 PM 33.2047 -98.1558 293° West 244 281 20,900 1,250 Climbing Fort Worth Center
Wed 04:28:58 PM 33.2314 -98.2381 291° West 250 288 22,500 1,050 Climbing Fort Worth Center
Wed 04:29:58 PM 33.2539 -98.3078 291° West 240 276 23,000 750 Climbing Fort Worth Center
Wed 04:30:58 PM 33.2825 -98.3925 292° West 250 288 24,000 1,250 Climbing Fort Worth Center
Wed 04:31:58 PM 33.3069 -98.4625 293° West 250 288 25,500 1,000 Climbing Fort Worth Center
Wed 04:32:58 PM 33.3253 -98.5322 287° West 238 274 26,000 250 Climbing Fort Worth Center
Wed 04:33:58 PM 33.3494 -98.6122 290° West 245 282 26,000  Level Fort Worth Center
Wed 04:34:58 PM 33.3778 -98.6969 292° West 263 303 26,000 300 Level Fort Worth Center
Wed 04:35:58 PM 33.4061 -98.7819 292° West 269 310 26,600 900 Climbing Fort Worth Center
Wed 04:36:58 PM 33.4303 -98.8597 290° West 264 304 27,800 700 Climbing Fort Worth Center
Wed 04:37:58 PM 33.4567 -98.9372 292° West 259 298 28,000 100 Climbing Fort Worth Center
Wed 04:38:58 PM 33.4825 -99.0197 291° West 259 298 28,000  Level Fort Worth Center
Wed 04:39:58 PM 33.5108 -99.1075 291° West 269 310 28,000  Level Fort Worth Center
Wed 04:40:58 PM 33.5386 -99.1978 290° West 275 316 28,000  Level Fort Worth Center
Wed 04:41:58 PM 33.5686 -99.2833 293° West 280 322 28,000  Level Fort Worth Center
Wed 04:42:58 PM 33.5944 -99.3711 289° West 280 322 28,000  Level Fort Worth Center
Wed 04:43:58 PM 33.6244 -99.4564 293° West 280 322 28,000  Level Fort Worth Center
Wed 04:44:58 PM 33.6797 -99.5203 316° Northwest 275 316 28,000  Level Fort Worth Center
Wed 04:45:58 PM 33.7472 -99.5942 318° Northwest 275 316 28,000  Level Fort Worth Center
Wed 04:46:58 PM 33.7986 -99.6506 318° Northwest 280 322 28,000  Level Fort Worth Center
Wed 04:47:58 PM 33.8642 -99.7197 319° Northwest 285 328 28,000  Level Fort Worth Center
Wed 04:48:58 PM 33.9211 -99.7864 316° Northwest 290 334 28,000  Level Fort Worth Center
Wed 04:49:58 PM 33.9725 -99.8403 319° Northwest 290 334 28,000  Level Fort Worth Center
Wed 04:50:58 PM 34.0294 -99.9044 317° Northwest 290 334 28,000  Level Fort Worth Center
Wed 04:51:58 PM 34.0886 -99.9739 316° Northwest 290 334 28,000  Level Fort Worth Center
Wed 04:53:56 PM 34.2125 -100.1089 318° Northwest 287 330 28,000  Level Albuquerque Center
Wed 04:54:58 PM 34.2706 -100.1736 317° Northwest 289 333 28,000  Level Albuquerque Center
Wed 04:56:00 PM 34.3286 -100.2400 317° Northwest 288 331 28,000  Level Albuquerque Center
Wed 04:57:02 PM 34.3853 -100.3075 315° West 287 330 28,000  Level Albuquerque Center
Wed 04:58:04 PM 34.4314 -100.3856 306° West 285 328 28,000 -49 Level Albuquerque Center
Wed 04:59:05 PM 34.4786 -100.4608 307° West 284 327 27,900 -732 Descending Albuquerque Center
Wed 05:00:07 PM 34.5389 -100.5586 307° West 297 342 26,500 -1,258 Descending Albuquerque Center
Wed 05:01:09 PM 34.5931 -100.6456 307° West 316 364 25,300 -1,210 Descending Albuquerque Center
Wed 05:02:11 PM 34.6464 -100.7328 307° West 321 369 24,000 -1,210 Descending Albuquerque Center
Wed 05:03:13 PM 34.7003 -100.8164 308° West 318 366 22,800 -1,210 Descending Albuquerque Center
Wed 05:04:15 PM 34.7511 -100.9008 306° West 313 360 21,500 -1,258 Descending Albuquerque Center
Wed 05:05:17 PM 34.8017 -100.9842 306° West 309 356 20,200 -1,415 Descending Albuquerque Center
Wed 05:06:18 PM 34.8572 -101.0850 304° West 302 348 18,600 -1,463 Descending Albuquerque Center
Wed 05:07:20 PM 34.8936 -101.1789 295° West 306 352 17,200 -1,344 Descending Albuquerque Center
Wed 05:08:23 PM 34.9331 -101.2689 298° West 303 349 15,800 -1,452 Descending Albuquerque Center
Wed 05:09:24 PM 34.9719 -101.3589 298° West 301 346 14,200 -1,610 Descending Albuquerque Center
Wed 05:10:26 PM 35.0092 -101.4472 297° West 296 341 12,500 -1,887 Descending Albuquerque Center
Wed 05:11:28 PM 35.0464 -101.5342 298° West 292 336 10,300 -1,887 Descending Albuquerque Center
Wed 05:12:30 PM 35.0836 -101.6178 299° West 285 328 8,600 -1,694 Descending Albuquerque Center
Wed 05:13:32 PM 35.1211 -101.7003 299° West 279 321 6,800 -1,742 Descending Albuquerque Center

Login

Don't have an account? Register now (free) for customized features, flight alerts, and more!